Time;durP1;ratioP1;P1;durP2;ratioP2;P2;SDS_P1;SDS_P2;PMS_P1;PMS_P2;Temp;Humidity;BMP_temperature;BMP_pressure;BME280_temperature;BME280_humidity;BME280_pressure;Samples;Min_cycle;Max_cycle;Signal;HPM_P1;HPM_P2
2023/03/09 03:37:37;;;;;;;1.00;0.50;;;8.50;99.90;;;;;;6207307;22;20412;-81
2023/03/09 03:40:08;;;;;;;0.80;0.40;;;8.40;99.90;;;;;;6242778;22;20440;-80
2023/03/09 03:42:34;;;;;;;0.82;0.50;;;8.40;99.90;;;;;;6242203;22;20429;-79
2023/03/09 03:45:01;;;;;;;0.80;0.35;;;8.40;99.90;;;;;;6241775;23;20400;-80
2023/03/09 03:47:28;;;;;;;0.60;0.40;;;8.40;99.90;;;;;;6242515;22;20379;-80
2023/03/09 03:49:55;;;;;;;0.65;0.30;;;8.30;99.90;;;;;;6242224;23;20422;-78
2023/03/09 03:52:23;;;;;;;0.73;0.30;;;8.30;99.90;;;;;;6240117;22;20369;-78
2023/03/09 03:54:51;;;;;;;0.50;0.30;;;8.30;99.90;;;;;;6242728;22;20447;-78
2023/03/09 03:57:18;;;;;;;0.85;0.30;;;8.40;99.90;;;;;;6241233;23;20440;-78
2023/03/09 03:59:45;;;;;;;0.90;0.30;;;8.40;99.90;;;;;;6240632;22;20449;-78
2023/03/09 04:02:11;;;;;;;0.50;0.20;;;8.40;99.90;;;;;;6241407;23;20434;-78
2023/03/09 04:04:38;;;;;;;0.35;0.20;;;8.50;99.90;;;;;;6239996;22;20420;-78
2023/03/09 04:07:05;;;;;;;0.98;0.40;;;8.40;99.90;;;;;;6241310;23;20373;-77
2023/03/09 04:09:33;;;;;;;0.30;0.20;;;8.30;99.90;;;;;;6241046;22;20698;-78
2023/03/09 04:11:59;;;;;;;1.20;0.70;;;8.40;99.90;;;;;;6241365;23;20396;-79
2023/03/09 04:14:26;;;;;;;1.10;0.70;;;8.30;99.90;;;;;;6240093;22;20444;-78
2023/03/09 04:16:53;;;;;;;1.20;0.60;;;8.40;99.90;;;;;;6241200;23;20432;-77
2023/03/09 04:19:23;;;;;;;0.77;0.43;;;8.30;99.90;;;;;;6240324;22;20377;-78
2023/03/09 04:21:50;;;;;;;1.33;0.50;;;8.20;99.90;;;;;;6240664;23;20444;-78
2023/03/09 04:24:17;;;;;;;2.50;1.05;;;8.20;99.90;;;;;;6242898;22;20373;-78
2023/03/09 04:26:44;;;;;;;8.80;6.30;;;8.10;99.90;;;;;;6239856;22;20387;-78
2023/03/09 04:29:10;;;;;;;8.60;6.18;;;8.10;99.90;;;;;;6240958;23;20425;-78
2023/03/09 04:31:37;;;;;;;10.73;7.60;;;8.10;99.90;;;;;;6240023;22;20380;-78
2023/03/09 04:34:04;;;;;;;11.30;8.87;;;8.00;99.90;;;;;;6240919;23;20451;-78
2023/03/09 04:36:31;;;;;;;12.10;8.30;;;7.90;99.90;;;;;;6239966;22;20400;-78
2023/03/09 04:38:58;;;;;;;11.77;8.70;;;7.80;99.90;;;;;;6240930;23;20396;-78
2023/03/09 04:41:25;;;;;;;10.60;7.78;;;7.70;99.90;;;;;;6241151;22;20448;-78
2023/03/09 04:43:51;;;;;;;11.05;8.00;;;7.60;99.90;;;;;;6240933;23;20404;-78
2023/03/09 04:46:18;;;;;;;10.02;7.47;;;7.60;99.90;;;;;;6242062;22;20423;-78
2023/03/09 04:48:45;;;;;;;13.40;8.48;;;7.50;99.90;;;;;;6240143;22;20364;-77
2023/03/09 04:51:12;;;;;;;14.15;9.18;;;7.50;99.90;;;;;;6240380;23;20380;-78
2023/03/09 04:53:39;;;;;;;12.50;8.27;;;7.50;99.90;;;;;;6239790;22;20384;-78
2023/03/09 04:56:06;;;;;;;11.63;8.82;;;7.40;99.90;;;;;;6240780;23;20911;-79
2023/03/09 04:58:33;;;;;;;12.25;8.57;;;7.40;99.90;;;;;;6239825;22;20399;-79
2023/03/09 05:01:03;;;;;;;11.88;9.10;;;7.30;99.90;;;;;;6240725;23;20365;-78
2023/03/09 05:03:30;;;;;;;13.63;11.73;;;7.30;99.90;;;;;;6239106;22;20380;-78
2023/03/09 05:05:57;;;;;;;10.23;8.40;;;7.30;99.90;;;;;;6240756;23;20357;-78
2023/03/09 05:08:24;;;;;;;7.57;6.45;;;7.30;99.90;;;;;;6240477;23;20377;-78
2023/03/09 05:10:50;;;;;;;10.23;7.40;;;7.30;99.90;;;;;;6240028;22;21264;-78
2023/03/09 05:13:17;;;;;;;11.55;8.85;;;7.20;99.90;;;;;;6239869;23;20385;-78
2023/03/09 05:15:44;;;;;;;11.48;7.63;;;6.90;99.90;;;;;;6239842;22;20365;-78
2023/03/09 05:18:11;;;;;;;9.93;7.07;;;6.80;99.90;;;;;;6240437;23;20391;-78
2023/03/09 05:20:38;;;;;;;17.67;13.88;;;6.70;99.90;;;;;;6239582;22;20366;-78
2023/03/09 05:23:05;;;;;;;20.63;15.65;;;6.50;99.90;;;;;;6240474;23;20752;-78
2023/03/09 05:25:32;;;;;;;13.73;10.27;;;6.50;99.90;;;;;;6239775;22;20706;-78
2023/03/09 05:27:59;;;;;;;14.00;10.10;;;6.40;99.90;;;;;;6240489;23;20755;-78
2023/03/09 05:30:27;;;;;;;16.02;11.43;;;6.40;99.90;;;;;;6240461;23;20388;-78
2023/03/09 05:32:57;;;;;;;13.53;10.57;;;6.40;99.90;;;;;;6239983;22;20369;-78
2023/03/09 05:35:24;;;;;;;17.08;11.77;;;6.20;99.90;;;;;;6240276;23;20915;-78
2023/03/09 05:37:51;;;;;;;16.95;11.85;;;5.90;99.90;;;;;;6239779;22;20372;-78
2023/03/09 05:40:21;;;;;;;19.17;12.43;;;5.80;99.90;;;;;;6241326;22;20502;-77
2023/03/09 05:42:48;;;;;;;14.02;10.43;;;5.80;99.90;;;;;;6239268;22;20416;-78
2023/03/09 05:45:15;;;;;;;14.85;10.40;;;5.90;99.90;;;;;;6239829;23;20455;-79
2023/03/09 05:47:42;;;;;;;14.93;10.63;;;5.90;99.90;;;;;;6238772;22;20369;-79
2023/03/09 05:50:09;;;;;;;14.93;11.05;;;5.70;99.90;;;;;;6240205;23;20372;-77
2023/03/09 05:52:36;;;;;;;11.73;9.55;;;5.60;99.90;;;;;;6239321;22;20424;-79
2023/03/09 05:55:03;;;;;;;13.63;9.95;;;5.70;99.90;;;;;;6239998;23;20360;-79
2023/03/09 05:57:30;;;;;;;13.93;9.82;;;5.60;99.90;;;;;;6240217;23;20377;-79
2023/03/09 05:59:57;;;;;;;14.15;10.75;;;5.60;99.90;;;;;;6240500;22;20361;-79
2023/03/09 06:02:24;;;;;;;16.73;10.80;;;5.70;99.90;;;;;;6241480;22;20734;-78
2023/03/09 06:04:52;;;;;;;14.63;11.30;;;5.80;99.90;;;;;;6238735;22;20797;-78
2023/03/09 06:07:19;;;;;;;17.95;11.77;;;5.80;99.90;;;;;;6239591;23;20434;-79
2023/03/09 06:09:45;;;;;;;16.08;11.00;;;5.60;99.90;;;;;;6239288;22;20400;-78
2023/03/09 06:12:12;;;;;;;15.30;11.35;;;5.50;99.90;;;;;;6239844;23;20391;-78
2023/03/09 06:14:39;;;;;;;15.68;11.10;;;5.50;99.90;;;;;;6239082;22;20404;-79
2023/03/09 06:17:06;;;;;;;14.80;11.02;;;5.40;99.90;;;;;;6239882;23;20438;-79
2023/03/09 06:19:33;;;;;;;15.32;11.32;;;5.50;99.90;;;;;;6239841;23;20369;-78
2023/03/09 06:22:00;;;;;;;17.42;13.63;;;5.50;99.90;;;;;;6238776;22;20391;-78
2023/03/09 06:24:27;;;;;;;16.17;12.40;;;5.50;99.90;;;;;;6239647;23;20377;-79
2023/03/09 06:26:57;;;;;;;16.40;12.50;;;5.50;99.90;;;;;;6239389;22;20455;-79
2023/03/09 06:29:25;;;;;;;18.03;14.00;;;5.60;99.90;;;;;;6240519;23;20408;-77
2023/03/09 06:31:52;;;;;;;16.95;12.73;;;5.60;99.90;;;;;;6238795;22;20443;-80
2023/03/09 06:34:19;;;;;;;18.95;13.30;;;5.60;99.90;;;;;;6240372;23;20388;-79
2023/03/09 06:36:46;;;;;;;15.25;11.15;;;5.50;99.90;;;;;;6237747;22;20369;-79
2023/03/09 06:39:13;;;;;;;16.17;12.38;;;5.60;99.90;;;;;;6240064;23;20369;-79
2023/03/09 06:41:40;;;;;;;18.25;13.05;;;5.60;99.90;;;;;;6238711;22;20393;-80
2023/03/09 06:44:08;;;;;;;16.60;11.60;;;5.50;99.90;;;;;;6240111;23;20753;-80
2023/03/09 06:46:35;;;;;;;19.67;14.15;;;5.60;99.90;;;;;;6240974;22;20376;-78
2023/03/09 06:49:02;;;;;;;23.17;15.60;;;5.60;99.90;;;;;;6238900;22;20379;-79
2023/03/09 06:51:29;;;;;;;27.88;18.58;;;5.70;99.90;;;;;;6241476;22;20369;-80
2023/03/09 06:53:57;;;;;;;27.40;19.38;;;5.80;99.90;;;;;;6239271;22;20415;-79
2023/03/09 06:56:24;;;;;;;24.80;18.65;;;5.90;99.90;;;;;;6239656;23;20419;-80
2023/03/09 06:58:53;;;;;;;18.85;14.13;;;5.90;99.90;;;;;;6239058;22;20783;-79
2023/03/09 07:01:21;;;;;;;20.05;15.90;;;6.00;99.90;;;;;;6241428;22;20439;-79
2023/03/09 07:03:48;;;;;;;18.85;14.88;;;6.10;99.90;;;;;;6239130;22;20901;-80
2023/03/09 07:06:15;;;;;;;23.58;15.90;;;6.20;99.90;;;;;;6240116;23;20680;-79
2023/03/09 07:08:42;;;;;;;22.00;15.15;;;6.20;99.90;;;;;;6239357;22;20376;-79
2023/03/09 07:11:09;;;;;;;18.42;12.45;;;6.30;99.90;;;;;;6239536;23;20424;-79
2023/03/09 07:13:36;;;;;;;18.90;13.50;;;6.40;99.90;;;;;;6235967;23;20373;-80
2023/03/09 07:16:04;;;;;;;17.48;11.45;;;6.50;99.90;;;;;;6238636;22;20407;-78
2023/03/09 07:18:32;;;;;;;15.98;10.88;;;6.60;99.90;;;;;;6241823;23;20675;-81
2023/03/09 07:21:01;;;;;;;11.37;9.33;;;6.70;99.90;;;;;;6241120;22;20750;-80
2023/03/09 07:23:29;;;;;;;12.13;9.63;;;6.80;99.90;;;;;;6241535;23;20369;-77
2023/03/09 07:26:01;;;;;;;13.02;9.93;;;7.00;99.90;;;;;;6241747;22;20376;-77
2023/03/09 07:28:29;;;;;;;13.65;10.75;;;7.10;99.90;;;;;;6242911;22;20399;-78
2023/03/09 07:30:56;;;;;;;10.75;8.80;;;7.20;99.90;;;;;;6240585;22;20365;-79
2023/03/09 07:33:23;;;;;;;11.13;8.93;;;7.30;99.90;;;;;;6240485;23;20753;-79
2023/03/09 07:35:50;;;;;;;12.52;8.25;;;7.40;99.90;;;;;;6240748;22;20444;-77
2023/03/09 07:38:17;;;;;;;13.50;8.48;;;7.50;99.90;;;;;;6241440;23;20383;-77
2023/03/09 07:40:44;;;;;;;9.60;7.35;;;7.70;99.90;;;;;;6241024;22;20392;-78
2023/03/09 07:43:12;;;;;;;8.57;7.35;;;7.90;99.90;;;;;;6241736;23;20365;-78
2023/03/09 07:45:39;;;;;;;10.68;7.57;;;8.00;99.90;;;;;;6241390;23;20372;-80
2023/03/09 07:48:07;;;;;;;8.85;6.80;;;8.20;99.90;;;;;;6240498;22;20399;-77
2023/03/09 07:50:34;;;;;;;7.93;7.00;;;8.40;99.90;;;;;;6241408;23;20377;-78
2023/03/09 07:53:01;;;;;;;8.68;6.90;;;8.60;99.90;;;;;;6240558;22;20448;-77
2023/03/09 07:55:29;;;;;;;12.25;9.02;;;8.80;99.90;;;;;;6242623;22;20443;-79
2023/03/09 07:57:56;;;;;;;10.23;8.77;;;9.00;99.90;;;;;;6240365;22;20448;-79
2023/03/09 08:00:24;;;;;;;10.20;8.65;;;9.20;99.90;;;;;;6241370;23;20419;-80
2023/03/09 08:02:51;;;;;;;10.82;8.50;;;9.40;99.90;;;;;;6240723;22;20447;-79
2023/03/09 08:05:19;;;;;;;11.63;8.57;;;9.50;99.90;;;;;;6240932;23;20381;-78
2023/03/09 08:07:46;;;;;;;10.73;8.35;;;9.60;99.90;;;;;;6240506;22;20499;-78
2023/03/09 08:10:18;;;;;;;9.00;8.10;;;9.80;99.90;;;;;;6241456;23;20380;-78
2023/03/09 08:12:49;;;;;;;11.40;7.90;;;9.90;99.90;;;;;;6242961;22;20369;-78
2023/03/09 08:15:19;;;;;;;8.80;7.15;;;10.10;99.90;;;;;;6239838;22;20365;-78
2023/03/09 08:17:46;;;;;;;9.25;7.45;;;10.20;99.90;;;;;;6241138;23;20408;-78
2023/03/09 08:20:13;;;;;;;8.45;6.60;;;10.40;99.90;;;;;;6240227;22;20426;-78
2023/03/09 08:22:40;;;;;;;8.57;6.90;;;10.70;99.90;;;;;;6241479;23;20423;-78
2023/03/09 08:25:08;;;;;;;8.65;6.93;;;10.80;99.90;;;;;;6240749;22;20376;-78
2023/03/09 08:27:43;;;;;;;10.93;8.55;;;11.00;99.90;;;;;;6240271;23;20384;-78
2023/03/09 08:30:12;;;;;;;8.90;7.88;;;11.20;99.90;;;;;;6239582;22;20676;-79
2023/03/09 08:32:39;;;;;;;13.40;8.30;;;11.30;99.90;;;;;;6239243;23;20377;-78
2023/03/09 08:35:07;;;;;;;9.57;8.18;;;11.50;99.90;;;;;;6239897;22;20407;-78
2023/03/09 08:37:34;;;;;;;9.20;8.18;;;11.60;99.90;;;;;;6240197;23;20447;-78
2023/03/09 08:40:01;;;;;;;10.40;8.45;;;11.80;99.90;;;;;;6239292;22;20452;-78
2023/03/09 08:42:28;;;;;;;11.83;8.87;;;12.00;99.90;;;;;;6240466;23;20505;-78
2023/03/09 08:44:55;;;;;;;13.00;9.17;;;12.20;99.90;;;;;;6239093;22;20779;-78
2023/03/09 08:47:22;;;;;;;12.67;9.27;;;12.40;99.00;;;;;;6240011;23;20393;-77
2023/03/09 08:49:49;;;;;;;11.65;9.43;;;12.60;98.30;;;;;;6240443;23;20404;-78
2023/03/09 08:52:16;;;;;;;14.15;9.10;;;12.70;95.50;;;;;;6239202;22;20671;-80
2023/03/09 08:54:43;;;;;;;11.55;9.00;;;12.70;94.70;;;;;;6241200;23;20376;-78
2023/03/09 08:57:09;;;;;;;12.30;9.32;;;12.80;94.90;;;;;;6240697;22;20399;-78
2023/03/09 08:59:36;;;;;;;11.00;8.73;;;12.80;94.60;;;;;;6240945;23;20487;-78
2023/03/09 09:02:04;;;;;;;11.10;8.88;;;12.90;95.40;;;;;;6240255;22;20476;-78
2023/03/09 09:04:31;;;;;;;13.95;10.02;;;13.00;94.60;;;;;;6241063;23;20412;-78
2023/03/09 09:06:58;;;;;;;11.10;8.20;;;13.10;94.40;;;;;;6238809;22;20392;-78
2023/03/09 09:09:25;;;;;;;12.02;7.85;;;13.20;95.00;;;;;;6240473;23;20432;-79
2023/03/09 09:11:52;;;;;;;12.82;8.88;;;13.40;93.60;;;;;;6238969;23;20396;-79
2023/03/09 09:14:19;;;;;;;11.32;8.35;;;13.50;90.20;;;;;;6238506;22;20388;-79
2023/03/09 09:16:45;;;;;;;10.32;8.48;;;13.60;91.50;;;;;;6240668;23;20433;-78
2023/03/09 09:19:14;;;;;;;11.60;8.25;;;13.60;86.70;;;;;;6239450;22;20703;-78
2023/03/09 09:21:41;;;;;;;8.93;7.00;;;13.70;88.20;;;;;;6240210;23;20454;-79
2023/03/09 09:24:08;;;;;;;8.75;6.70;;;13.60;90.10;;;;;;6240211;22;20361;-79
2023/03/09 09:26:36;;;;;;;7.60;6.18;;;13.70;87.70;;;;;;6239054;23;20381;-79
2023/03/09 09:29:05;;;;;;;8.00;5.90;;;13.80;87.80;;;;;;6238557;22;20435;-80
2023/03/09 09:31:32;;;;;;;8.32;5.97;;;13.90;87.50;;;;;;6239800;23;20376;-79
2023/03/09 09:33:59;;;;;;;11.70;7.78;;;14.00;82.20;;;;;;6238775;22;20372;-78
2023/03/09 09:36:26;;;;;;;8.95;6.70;;;14.10;75.30;;;;;;6240854;23;20361;-79
2023/03/09 09:38:53;;;;;;;8.33;6.33;;;14.00;77.10;;;;;;6239893;23;20407;-78
2023/03/09 09:41:38;;;;;;;11.48;7.28;;;14.00;79.70;;;;;;6239331;22;20403;-78
2023/03/09 09:44:10;;;;;;;11.57;8.05;;;14.00;74.40;;;;;;6239502;22;20373;-79
2023/03/09 09:46:39;;;;;;;12.68;8.80;;;14.10;75.00;;;;;;6240364;23;20404;-77
2023/03/09 09:49:09;;;;;;;11.98;8.57;;;14.10;71.60;;;;;;6239581;22;20373;-79
2023/03/09 09:52:09;;;;;;;10.07;6.85;;;14.10;76.60;;;;;;6241664;22;20381;-79
2023/03/09 09:54:49;;;;;;;8.93;7.07;;;14.10;76.00;;;;;;6214781;23;20820;-80
2023/03/09 09:57:22;;;;;;;9.43;6.97;;;14.20;75.00;;;;;;6235761;22;20471;-78
2023/03/09 10:00:03;;;;;;;10.90;7.70;;;14.30;78.00;;;;;;6240415;23;20750;-81
2023/03/09 10:02:47;;;;;;;13.00;8.37;;;14.40;75.60;;;;;;6239544;22;20369;-79
2023/03/09 10:05:30;;;;;;;12.07;8.38;;;14.40;73.00;;;;;;6238673;22;20408;-79
2023/03/09 10:08:10;;;;;;;13.45;8.30;;;14.50;73.30;;;;;;6240219;23;20399;-78
2023/03/09 10:10:39;;;;;;;12.17;7.90;;;14.50;74.20;;;;;;6239127;22;20444;-79
2023/03/09 10:13:14;;;;;;;11.93;7.97;;;14.70;72.30;;;;;;6240290;23;20368;-79
2023/03/09 10:15:42;;;;;;;12.30;8.43;;;14.60;69.40;;;;;;6239104;22;20369;-78
2023/03/09 10:18:16;;;;;;;11.95;8.05;;;14.60;73.30;;;;;;6239965;23;20393;-78
2023/03/09 10:20:51;;;;;;;12.73;8.57;;;14.50;72.10;;;;;;6239726;22;20461;-79
2023/03/09 10:23:27;;;;;;;10.55;7.47;;;14.60;72.20;;;;;;6239111;22;20369;-79
2023/03/09 10:26:26;;;;;;;12.50;8.93;;;14.60;72.80;;;;;;6239703;23;20449;-78
2023/03/09 10:29:00;;;;;;;13.18;8.98;;;14.70;71.20;;;;;;6239137;22;20423;-78
2023/03/09 10:31:51;;;;;;;13.75;8.68;;;14.70;68.80;;;;;;6239471;23;20369;-79
2023/03/09 10:34:23;;;;;;;11.40;8.70;;;14.70;71.60;;;;;;6237848;22;20742;-78
2023/03/09 10:37:10;;;;;;;13.97;9.83;;;14.80;73.70;;;;;;6241847;22;20426;-79
2023/03/09 10:39:44;;;;;;;13.88;9.25;;;14.90;70.40;;;;;;6239311;22;20369;-79
2023/03/09 10:42:26;;;;;;;13.03;8.97;;;15.00;73.00;;;;;;6240033;23;20456;-79
2023/03/09 10:45:04;;;;;;;14.63;9.90;;;15.20;71.90;;;;;;6239045;23;20447;-79
2023/03/09 10:47:51;;;;;;;13.15;9.95;;;15.30;71.80;;;;;;6238930;22;20774;-78
2023/03/09 10:50:19;;;;;;;13.68;9.95;;;15.40;67.70;;;;;;6240074;22;20373;-78
2023/03/09 10:52:53;;;;;;;14.05;10.00;;;15.40;69.90;;;;;;6240884;22;20811;-79
2023/03/09 10:55:45;;;;;;;12.65;9.88;;;15.50;71.90;;;;;;6242393;23;21319;-79
2023/03/09 10:58:22;;;;;;;15.50;10.05;;;15.50;66.00;;;;;;6241309;22;20369;-79
2023/03/09 11:00:50;;;;;;;12.55;9.30;;;15.60;67.60;;;;;;6216881;23;20376;-80
2023/03/09 11:03:31;;;;;;;11.93;9.38;;;15.80;69.10;;;;;;6241571;22;20702;-79
2023/03/09 11:06:19;;;;;;;13.38;9.95;;;16.10;70.20;;;;;;6240906;22;20401;-79
2023/03/09 11:08:57;;;;;;;13.57;10.43;;;16.30;67.60;;;;;;6240158;23;20919;-78
2023/03/09 11:11:43;;;;;;;13.57;9.80;;;16.40;68.40;;;;;;6240085;22;20722;-79
2023/03/09 11:14:24;;;;;;;14.68;10.80;;;16.40;67.40;;;;;;6241895;23;20826;-78
2023/03/09 11:16:54;;;;;;;12.80;9.37;;;16.30;63.70;;;;;;6240779;22;20415;-77
2023/03/09 11:19:21;;;;;;;13.57;9.40;;;16.30;67.80;;;;;;6241627;23;20400;-78
2023/03/09 11:22:06;;;;;;;10.80;8.35;;;16.40;66.70;;;;;;6240454;22;20372;-78
2023/03/09 11:24:37;;;;;;;12.38;10.18;;;16.60;66.80;;;;;;6240648;22;20404;-78
2023/03/09 11:27:10;;;;;;;10.45;8.38;;;16.80;65.90;;;;;;6241249;23;20373;-79
2023/03/09 11:29:56;;;;;;;12.70;9.75;;;17.00;67.00;;;;;;6240933;22;20389;-80
2023/03/09 11:32:23;;;;;;;11.38;8.38;;;17.30;66.80;;;;;;6241540;23;20368;-79
2023/03/09 11:34:52;;;;;;;12.83;9.60;;;17.30;62.90;;;;;;6240798;22;20365;-81
2023/03/09 11:37:28;;;;;;;8.70;6.80;;;17.40;63.60;;;;;;6242078;22;20381;-80
2023/03/09 11:40:10;;;;;;;8.77;6.82;;;17.50;63.20;;;;;;6240406;23;21036;-77
2023/03/09 11:42:47;;;;;;;8.70;6.97;;;17.70;61.90;;;;;;6239541;22;20373;-79
2023/03/09 11:45:30;;;;;;;15.43;9.48;;;17.80;59.70;;;;;;6240692;23;21246;-79
2023/03/09 11:48:25;;;;;;;14.48;9.65;;;17.90;59.80;;;;;;6240641;23;20418;-78
2023/03/09 11:51:20;;;;;;;11.18;8.02;;;17.90;57.70;;;;;;6240560;22;21892;-79
2023/03/09 11:53:47;;;;;;;11.45;6.50;;;17.80;57.30;;;;;;6224356;22;20869;-78
2023/03/09 11:56:30;;;;;;;11.70;8.15;;;17.90;57.70;;;;;;6239915;23;20390;-79
2023/03/09 11:59:16;;;;;;;10.17;8.13;;;18.10;57.70;;;;;;6240597;22;20365;-78
2023/03/09 12:01:55;;;;;;;12.32;8.70;;;18.10;57.90;;;;;;6240057;22;20681;-79
2023/03/09 12:04:22;;;;;;;10.75;7.88;;;18.10;56.50;;;;;;6243207;22;20846;-80
2023/03/09 12:07:09;;;;;;;12.45;8.52;;;18.20;58.10;;;;;;6240251;22;20381;-78
2023/03/09 12:09:55;;;;;;;10.32;7.90;;;18.00;55.30;;;;;;6237577;22;20747;-79
2023/03/09 12:12:32;;;;;;;7.07;5.50;;;18.00;55.40;;;;;;6239215;23;20926;-78
2023/03/09 12:15:04;;;;;;;10.40;7.82;;;18.00;56.50;;;;;;6238944;22;20427;-79
2023/03/09 12:17:37;;;;;;;10.87;8.00;;;18.20;56.00;;;;;;6241164;23;20459;-78
2023/03/09 12:20:04;;;;;;;9.23;6.53;;;18.20;56.30;;;;;;6239179;22;20373;-79
2023/03/09 12:22:36;;;;;;;9.35;6.75;;;18.10;56.20;;;;;;6239018;23;20460;-80
2023/03/09 12:25:06;;;;;;;8.85;6.22;;;18.20;57.20;;;;;;6239298;22;20377;-80
2023/03/09 12:27:35;;;;;;;10.35;7.72;;;18.40;58.10;;;;;;6240911;23;20373;-78
2023/03/09 12:30:19;;;;;;;9.98;7.25;;;18.50;56.90;;;;;;6214431;22;20732;-80
2023/03/09 12:32:46;;;;;;;11.65;7.03;;;18.70;57.20;;;;;;6239702;22;20703;-80
2023/03/09 12:35:22;;;;;;;10.20;6.88;;;18.80;54.70;;;;;;6240919;23;20823;-78
2023/03/09 12:38:02;;;;;;;7.68;5.53;;;18.90;55.40;;;;;;6240194;22;20373;-78
2023/03/09 12:40:35;;;;;;;7.93;5.13;;;19.00;54.20;;;;;;6241138;23;20388;-78
2023/03/09 12:43:14;;;;;;;7.03;4.22;;;19.10;50.20;;;;;;6240181;22;20829;-78
2023/03/09 12:45:43;;;;;;;6.57;4.70;;;19.20;51.10;;;;;;6240610;23;20391;-78
2023/03/09 12:48:13;;;;;;;6.65;3.90;;;19.30;49.20;;;;;;6240600;22;20715;-78
2023/03/09 12:50:45;;;;;;;4.53;3.15;;;19.30;49.00;;;;;;6240796;23;20479;-79
2023/03/09 12:53:24;;;;;;;6.22;3.72;;;19.40;48.30;;;;;;6240466;22;20411;-79
2023/03/09 12:55:53;;;;;;;8.45;4.70;;;19.40;47.70;;;;;;6241573;22;20377;-78
2023/03/09 12:58:22;;;;;;;6.80;4.75;;;19.40;47.70;;;;;;6241570;23;20739;-80
2023/03/09 13:01:11;;;;;;;6.75;5.10;;;19.40;48.20;;;;;;6240116;22;20407;-79
2023/03/09 13:03:49;;;;;;;10.63;6.30;;;19.40;49.70;;;;;;6240530;23;20369;-78
2023/03/09 13:06:43;;;;;;;7.93;5.90;;;19.30;49.50;;;;;;6240370;22;20375;-79
2023/03/09 13:09:13;;;;;;;10.38;6.43;;;19.20;50.70;;;;;;6240042;22;20842;-79
2023/03/09 13:11:57;;;;;;;11.77;6.83;;;19.20;51.20;;;;;;6239944;23;20380;-79
2023/03/09 13:14:27;;;;;;;8.68;6.90;;;19.20;50.10;;;;;;6240023;23;20568;-79
2023/03/09 13:16:54;;;;;;;10.13;6.47;;;19.10;50.50;;;;;;6240305;23;20373;-78
2023/03/09 13:19:23;;;;;;;8.80;5.47;;;19.00;49.40;;;;;;6239049;22;20895;-79
2023/03/09 13:21:56;;;;;;;8.18;5.50;;;18.90;50.20;;;;;;6238455;23;20377;-78
2023/03/09 13:24:35;;;;;;;8.82;5.25;;;19.00;50.50;;;;;;6240894;22;20369;-79
2023/03/09 13:27:16;;;;;;;7.22;4.90;;;19.00;49.80;;;;;;6238958;22;20377;-79
2023/03/09 13:30:00;;;;;;;7.10;4.55;;;19.10;48.00;;;;;;6240828;23;20369;-80
2023/03/09 13:32:29;;;;;;;7.38;4.10;;;19.20;48.80;;;;;;6239817;22;20364;-78
2023/03/09 13:34:59;;;;;;;6.05;3.45;;;19.40;48.50;;;;;;6240668;23;20746;-79
2023/03/09 13:37:29;;;;;;;5.20;3.67;;;19.50;46.20;;;;;;6239800;22;20369;-79
2023/03/09 13:39:57;;;;;;;6.37;4.77;;;19.60;44.60;;;;;;6239200;23;20365;-79
2023/03/09 13:42:25;;;;;;;5.13;3.87;;;19.40;44.90;;;;;;6239519;22;20412;-78
2023/03/09 13:44:55;;;;;;;7.65;4.40;;;19.40;44.70;;;;;;6240428;23;20835;-79
2023/03/09 13:47:32;;;;;;;5.65;3.58;;;19.30;46.10;;;;;;6239286;22;20376;-79
2023/03/09 13:50:00;;;;;;;6.97;3.77;;;19.40;46.70;;;;;;6239886;22;20403;-79
2023/03/09 13:52:27;;;;;;;4.70;4.13;;;19.50;46.20;;;;;;6241034;22;20429;-79
2023/03/09 13:55:00;;;;;;;6.40;4.13;;;19.50;46.70;;;;;;6240946;23;20377;-79
2023/03/09 13:57:32;;;;;;;4.00;2.78;;;19.60;48.20;;;;;;6239647;22;20672;-79
2023/03/09 14:00:15;;;;;;;5.10;3.35;;;19.80;47.80;;;;;;6239228;23;20369;-79
2023/03/09 14:02:46;;;;;;;3.20;2.50;;;19.90;45.20;;;;;;6239619;22;20433;-79
2023/03/09 14:05:15;;;;;;;4.35;2.75;;;19.90;45.80;;;;;;6240162;23;20688;-78
2023/03/09 14:08:04;;;;;;;6.78;3.88;;;19.90;45.70;;;;;;6239636;22;20365;-80
2023/03/09 14:10:35;;;;;;;4.78;3.28;;;19.90;44.40;;;;;;6238201;23;20373;-79
2023/03/09 14:13:06;;;;;;;4.63;3.13;;;19.90;44.30;;;;;;6238658;22;20373;-79
2023/03/09 14:15:34;;;;;;;5.88;3.80;;;19.90;44.80;;;;;;6239598;23;20424;-78
2023/03/09 14:18:02;;;;;;;5.35;4.13;;;20.00;45.10;;;;;;6238604;22;20681;-79
2023/03/09 14:20:37;;;;;;;7.95;4.88;;;20.10;45.40;;;;;;6239347;23;20368;-79
2023/03/09 14:23:15;;;;;;;5.90;4.15;;;20.20;45.30;;;;;;6237330;22;20365;-79
2023/03/09 14:25:43;;;;;;;8.68;5.53;;;20.30;46.60;;;;;;6238437;22;20735;-80
2023/03/09 14:28:27;;;;;;;6.57;4.53;;;20.40;45.30;;;;;;6240233;23;20387;-79
2023/03/09 14:30:54;;;;;;;5.13;3.85;;;20.50;45.60;;;;;;6239960;22;20838;-79
2023/03/09 14:33:28;;;;;;;8.77;6.18;;;20.70;45.80;;;;;;6241253;23;20736;-80
2023/03/09 14:36:16;;;;;;;8.15;5.43;;;20.80;44.30;;;;;;6240941;22;20373;-79
2023/03/09 14:39:01;;;;;;;7.03;4.35;;;20.80;44.70;;;;;;6240373;22;20376;-80
2023/03/09 14:41:30;;;;;;;7.45;5.85;;;20.90;44.90;;;;;;6241608;23;20703;-79
2023/03/09 14:43:57;;;;;;;9.23;6.50;;;20.90;44.80;;;;;;6241502;22;20397;-78
2023/03/09 14:46:27;;;;;;;9.53;6.50;;;20.90;45.40;;;;;;6241749;23;20703;-78
2023/03/09 14:49:03;;;;;;;8.65;6.63;;;20.90;45.80;;;;;;6241114;22;20405;-79
2023/03/09 14:51:34;;;;;;;9.48;6.85;;;20.90;45.80;;;;;;6242094;23;20865;-80
2023/03/09 14:54:06;;;;;;;11.32;7.97;;;20.70;46.70;;;;;;6239371;22;20751;-79
2023/03/09 14:56:33;;;;;;;8.45;6.85;;;20.80;47.00;;;;;;6241800;23;20392;-79
2023/03/09 14:59:14;;;;;;;8.70;6.85;;;20.70;47.70;;;;;;6241091;22;20392;-79
2023/03/09 15:01:47;;;;;;;11.80;8.07;;;20.80;48.60;;;;;;6240441;23;20392;-78
2023/03/09 15:04:26;;;;;;;16.05;11.18;;;20.70;49.80;;;;;;6240626;22;20365;-80
2023/03/09 15:06:53;;;;;;;13.20;8.88;;;20.70;49.80;;;;;;6241477;23;20427;-80
2023/03/09 15:09:21;;;;;;;10.90;7.15;;;20.50;50.10;;;;;;6240932;22;20415;-79
2023/03/09 15:11:50;;;;;;;9.80;7.82;;;20.50;50.40;;;;;;6241373;23;20746;-78
2023/03/09 15:14:35;;;;;;;12.68;7.60;;;20.60;50.30;;;;;;6241000;22;20388;-78
2023/03/09 15:17:04;;;;;;;14.02;8.43;;;20.70;51.40;;;;;;6240800;22;20379;-79
2023/03/09 15:19:31;;;;;;;12.88;9.80;;;20.80;50.80;;;;;;6242133;23;20716;-79
2023/03/09 15:22:01;;;;;;;12.90;9.20;;;20.70;49.20;;;;;;6241348;23;20445;-79
2023/03/09 15:24:32;;;;;;;13.23;9.52;;;20.50;49.60;;;;;;6241178;22;20372;-78
2023/03/09 15:26:59;;;;;;;12.60;9.38;;;20.20;49.70;;;;;;6241429;23;20369;-79
2023/03/09 15:29:26;;;;;;;13.25;9.18;;;20.10;50.00;;;;;;6241498;22;20361;-79
2023/03/09 15:31:53;;;;;;;11.43;8.35;;;20.00;50.60;;;;;;6241556;23;20379;-79
2023/03/09 15:34:20;;;;;;;13.90;9.57;;;19.90;49.60;;;;;;6240410;22;20707;-80
2023/03/09 15:36:47;;;;;;;11.35;9.07;;;19.80;50.00;;;;;;6239920;23;20412;-79
2023/03/09 15:39:14;;;;;;;12.38;9.40;;;19.80;50.30;;;;;;6241148;22;20849;-79
2023/03/09 15:41:41;;;;;;;13.57;9.55;;;19.80;50.90;;;;;;6240950;23;20380;-79
2023/03/09 15:44:08;;;;;;;15.13;9.50;;;19.90;51.00;;;;;;6240696;22;20735;-79
2023/03/09 15:46:34;;;;;;;15.18;10.32;;;20.10;50.90;;;;;;6241670;23;20753;-78
2023/03/09 15:49:07;;;;;;;12.43;10.02;;;20.40;49.60;;;;;;6237984;23;20397;-79
2023/03/09 15:51:37;;;;;;;23.83;19.47;;;20.70;49.20;;;;;;6239937;22;20774;-79
2023/03/09 15:54:05;;;;;;;18.67;15.82;;;20.80;47.90;;;;;;6241234;22;20827;-80
2023/03/09 15:56:32;;;;;;;17.88;14.70;;;21.10;48.20;;;;;;6241174;22;20742;-79
2023/03/09 15:59:02;;;;;;;16.13;11.73;;;21.30;46.70;;;;;;6240948;23;20377;-79
2023/03/09 16:01:29;;;;;;;11.02;8.55;;;21.30;46.50;;;;;;6239587;22;20452;-80
2023/03/09 16:03:56;;;;;;;13.50;9.43;;;21.20;46.30;;;;;;6240589;23;20379;-79
2023/03/09 16:06:23;;;;;;;13.65;10.50;;;20.90;47.10;;;;;;6241016;22;20431;-77
2023/03/09 16:08:50;;;;;;;12.57;10.07;;;20.80;47.60;;;;;;6240333;23;20369;-80
2023/03/09 16:11:19;;;;;;;15.85;13.52;;;20.70;47.40;;;;;;6239777;22;20524;-79
2023/03/09 16:13:46;;;;;;;11.57;9.60;;;20.60;47.80;;;;;;6240094;23;20734;-80
2023/03/09 16:16:14;;;;;;;11.43;8.23;;;20.40;47.40;;;;;;6237807;22;20763;-80
2023/03/09 16:18:41;;;;;;;9.13;7.05;;;20.10;48.20;;;;;;6239915;23;20392;-81
2023/03/09 16:21:09;;;;;;;9.73;7.35;;;19.90;48.60;;;;;;6240442;23;20373;-80
2023/03/09 16:23:36;;;;;;;10.82;6.90;;;19.90;48.60;;;;;;6239652;22;20376;-80
2023/03/09 16:26:03;;;;;;;15.95;11.85;;;19.60;49.30;;;;;;6240355;23;20748;-80
2023/03/09 16:28:30;;;;;;;30.33;23.83;;;19.30;49.80;;;;;;6239405;22;20376;-81
2023/03/09 16:30:57;;;;;;;40.58;29.55;;;19.10;50.80;;;;;;6239812;23;20388;-77
2023/03/09 16:33:24;;;;;;;31.45;24.60;;;19.00;51.40;;;;;;6239322;22;20738;-80
2023/03/09 16:35:59;;;;;;;30.67;22.50;;;18.90;51.90;;;;;;6240208;23;20365;-79